sensor_id;sensor_type;location;lat;lon;timestamp;temperature;humidity
20973;DHT22;10645;52.370;13.314;2022-10-16T00:00:39;14.40;99.90
20973;DHT22;10645;52.370;13.314;2022-10-16T00:03:06;14.40;99.90
20973;DHT22;10645;52.370;13.314;2022-10-16T00:05:39;14.40;99.90
20973;DHT22;10645;52.370;13.314;2022-10-16T00:08:05;14.40;99.90
20973;DHT22;10645;52.370;13.314;2022-10-16T00:10:31;14.40;99.90
20973;DHT22;10645;52.370;13.314;2022-10-16T00:12:57;14.40;99.90
20973;DHT22;10645;52.370;13.314;2022-10-16T00:15:23;14.40;99.90
20973;DHT22;10645;52.370;13.314;2022-10-16T00:17:49;14.40;99.90
20973;DHT22;10645;52.370;13.314;2022-10-16T00:20:15;14.40;99.90
20973;DHT22;10645;52.370;13.314;2022-10-16T00:22:42;14.40;99.90
20973;DHT22;10645;52.370;13.314;2022-10-16T00:25:08;14.40;99.90
20973;DHT22;10645;52.370;13.314;2022-10-16T00:27:34;14.40;99.90
20973;DHT22;10645;52.370;13.314;2022-10-16T00:30:00;14.40;99.90
20973;DHT22;10645;52.370;13.314;2022-10-16T00:32:26;14.40;99.90
20973;DHT22;10645;52.370;13.314;2022-10-16T00:34:52;14.50;99.90
20973;DHT22;10645;52.370;13.314;2022-10-16T00:37:20;14.50;99.90
20973;DHT22;10645;52.370;13.314;2022-10-16T00:39:46;14.50;99.90
20973;DHT22;10645;52.370;13.314;2022-10-16T00:42:18;14.50;99.90
20973;DHT22;10645;52.370;13.314;2022-10-16T00:47:18;14.50;99.90
20973;DHT22;10645;52.370;13.314;2022-10-16T00:49:46;14.60;99.90
20973;DHT22;10645;52.370;13.314;2022-10-16T00:52:13;14.60;99.90
20973;DHT22;10645;52.370;13.314;2022-10-16T00:54:40;14.60;99.90
20973;DHT22;10645;52.370;13.314;2022-10-16T00:57:06;14.60;99.90
20973;DHT22;10645;52.370;13.314;2022-10-16T00:59:39;14.60;99.90
20973;DHT22;10645;52.370;13.314;2022-10-16T01:02:08;14.60;99.90
20973;DHT22;10645;52.370;13.314;2022-10-16T01:04:37;14.50;99.90
20973;DHT22;10645;52.370;13.314;2022-10-16T01:10:22;14.40;99.90
20973;DHT22;10645;52.370;13.314;2022-10-16T01:13:07;14.50;99.90
20973;DHT22;10645;52.370;13.314;2022-10-16T01:15:45;14.40;99.90
20973;DHT22;10645;52.370;13.314;2022-10-16T01:18:30;14.40;99.90
20973;DHT22;10645;52.370;13.314;2022-10-16T01:21:02;14.40;99.90
20973;DHT22;10645;52.370;13.314;2022-10-16T01:23:48;14.40;99.90
20973;DHT22;10645;52.370;13.314;2022-10-16T01:29:00;14.30;99.90
20973;DHT22;10645;52.370;13.314;2022-10-16T01:31:32;14.20;99.90
20973;DHT22;10645;52.370;13.314;2022-10-16T01:38:29;14.20;99.90
20973;DHT22;10645;52.370;13.314;2022-10-16T01:41:13;14.20;99.90
20973;DHT22;10645;52.370;13.314;2022-10-16T01:44:06;14.20;99.90
20973;DHT22;10645;52.370;13.314;2022-10-16T01:46:36;14.20;99.90
20973;DHT22;10645;52.370;13.314;2022-10-16T01:49:04;14.20;99.90
20973;DHT22;10645;52.370;13.314;2022-10-16T01:51:32;14.20;99.90
20973;DHT22;10645;52.370;13.314;2022-10-16T01:54:00;14.20;99.90
20973;DHT22;10645;52.370;13.314;2022-10-16T01:56:28;14.30;99.90
20973;DHT22;10645;52.370;13.314;2022-10-16T01:59:12;14.30;99.90
20973;DHT22;10645;52.370;13.314;2022-10-16T02:01:44;14.40;99.90
20973;DHT22;10645;52.370;13.314;2022-10-16T02:06:48;14.40;99.90
20973;DHT22;10645;52.370;13.314;2022-10-16T02:09:14;14.50;99.90
20973;DHT22;10645;52.370;13.314;2022-10-16T02:11:43;14.50;99.90
20973;DHT22;10645;52.370;13.314;2022-10-16T02:14:09;14.50;99.90
20973;DHT22;10645;52.370;13.314;2022-10-16T02:16:41;14.60;99.90
20973;DHT22;10645;52.370;13.314;2022-10-16T02:19:13;14.60;99.90
20973;DHT22;10645;52.370;13.314;2022-10-16T02:21:44;14.60;99.90
20973;DHT22;10645;52.370;13.314;2022-10-16T02:24:35;14.50;99.90
20973;DHT22;10645;52.370;13.314;2022-10-16T02:27:10;14.50;99.90
20973;DHT22;10645;52.370;13.314;2022-10-16T02:29:41;14.50;99.90
20973;DHT22;10645;52.370;13.314;2022-10-16T02:32:12;14.50;99.90
20973;DHT22;10645;52.370;13.314;2022-10-16T02:34:40;14.50;99.90
20973;DHT22;10645;52.370;13.314;2022-10-16T02:37:07;14.40;99.90
20973;DHT22;10645;52.370;13.314;2022-10-16T02:39:34;14.40;99.90
20973;DHT22;10645;52.370;13.314;2022-10-16T02:42:01;14.40;99.90
20973;DHT22;10645;52.370;13.314;2022-10-16T02:44:27;14.30;99.90
20973;DHT22;10645;52.370;13.314;2022-10-16T02:46:53;14.30;99.90
20973;DHT22;10645;52.370;13.314;2022-10-16T02:49:19;14.20;99.90
20973;DHT22;10645;52.370;13.314;2022-10-16T02:51:45;14.20;99.90
20973;DHT22;10645;52.370;13.314;2022-10-16T02:54:11;14.10;99.90
20973;DHT22;10645;52.370;13.314;2022-10-16T02:56:38;14.10;99.90
20973;DHT22;10645;52.370;13.314;2022-10-16T02:59:04;14.10;99.90
20973;DHT22;10645;52.370;13.314;2022-10-16T03:01:30;14.00;99.90
20973;DHT22;10645;52.370;13.314;2022-10-16T03:03:57;14.00;99.90
20973;DHT22;10645;52.370;13.314;2022-10-16T03:06:23;14.00;99.90
20973;DHT22;10645;52.370;13.314;2022-10-16T03:08:49;14.00;99.90
20973;DHT22;10645;52.370;13.314;2022-10-16T03:11:15;14.00;99.90
20973;DHT22;10645;52.370;13.314;2022-10-16T03:13:41;13.90;99.90
20973;DHT22;10645;52.370;13.314;2022-10-16T03:16:07;14.00;99.90
20973;DHT22;10645;52.370;13.314;2022-10-16T03:18:34;13.90;99.90
20973;DHT22;10645;52.370;13.314;2022-10-16T03:21:00;13.90;99.90
20973;DHT22;10645;52.370;13.314;2022-10-16T03:23:26;13.90;99.90
20973;DHT22;10645;52.370;13.314;2022-10-16T03:25:52;13.80;99.90
20973;DHT22;10645;52.370;13.314;2022-10-16T03:28:18;13.80;99.90
20973;DHT22;10645;52.370;13.314;2022-10-16T03:30:44;13.80;99.90
20973;DHT22;10645;52.370;13.314;2022-10-16T03:33:10;13.80;99.90
20973;DHT22;10645;52.370;13.314;2022-10-16T03:35:36;13.70;99.90
20973;DHT22;10645;52.370;13.314;2022-10-16T03:38:02;13.70;99.90
20973;DHT22;10645;52.370;13.314;2022-10-16T03:40:29;13.60;99.90
20973;DHT22;10645;52.370;13.314;2022-10-16T03:42:58;13.60;99.90
20973;DHT22;10645;52.370;13.314;2022-10-16T03:45:24;13.60;99.90
20973;DHT22;10645;52.370;13.314;2022-10-16T03:47:51;13.60;99.90
20973;DHT22;10645;52.370;13.314;2022-10-16T03:50:17;13.50;99.90
20973;DHT22;10645;52.370;13.314;2022-10-16T03:52:43;13.50;99.90
20973;DHT22;10645;52.370;13.314;2022-10-16T03:55:09;13.50;99.90
20973;DHT22;10645;52.370;13.314;2022-10-16T03:57:35;13.50;99.90
20973;DHT22;10645;52.370;13.314;2022-10-16T04:00:02;13.40;99.90
20973;DHT22;10645;52.370;13.314;2022-10-16T04:02:38;13.40;99.90
20973;DHT22;10645;52.370;13.314;2022-10-16T04:05:04;13.40;99.90
20973;DHT22;10645;52.370;13.314;2022-10-16T04:07:30;13.50;99.90
20973;DHT22;10645;52.370;13.314;2022-10-16T04:09:56;13.50;99.90
20973;DHT22;10645;52.370;13.314;2022-10-16T04:12:25;13.50;99.90
20973;DHT22;10645;52.370;13.314;2022-10-16T04:14:51;13.50;99.90
20973;DHT22;10645;52.370;13.314;2022-10-16T04:17:17;13.50;99.90
20973;DHT22;10645;52.370;13.314;2022-10-16T04:19:43;13.50;99.90
20973;DHT22;10645;52.370;13.314;2022-10-16T04:22:09;13.50;99.90
20973;DHT22;10645;52.370;13.314;2022-10-16T04:24:36;13.50;99.90
20973;DHT22;10645;52.370;13.314;2022-10-16T04:27:02;13.40;99.90
20973;DHT22;10645;52.370;13.314;2022-10-16T04:29:28;13.40;99.90
20973;DHT22;10645;52.370;13.314;2022-10-16T04:31:54;13.30;99.90
20973;DHT22;10645;52.370;13.314;2022-10-16T04:34:20;13.30;99.90
20973;DHT22;10645;52.370;13.314;2022-10-16T04:36:49;13.20;99.90
20973;DHT22;10645;52.370;13.314;2022-10-16T04:39:16;13.10;99.90
20973;DHT22;10645;52.370;13.314;2022-10-16T04:41:42;13.10;99.90
20973;DHT22;10645;52.370;13.314;2022-10-16T04:44:08;13.00;99.90
20973;DHT22;10645;52.370;13.314;2022-10-16T04:46:34;13.00;99.90
20973;DHT22;10645;52.370;13.314;2022-10-16T04:49:00;13.00;99.90
20973;DHT22;10645;52.370;13.314;2022-10-16T04:51:27;13.00;99.90
20973;DHT22;10645;52.370;13.314;2022-10-16T04:53:54;12.90;99.90
20973;DHT22;10645;52.370;13.314;2022-10-16T04:56:20;12.90;99.90
20973;DHT22;10645;52.370;13.314;2022-10-16T04:58:47;12.90;99.90
20973;DHT22;10645;52.370;13.314;2022-10-16T05:01:13;12.90;99.90
20973;DHT22;10645;52.370;13.314;2022-10-16T05:03:39;12.80;99.90
20973;DHT22;10645;52.370;13.314;2022-10-16T05:06:06;12.80;99.90
20973;DHT22;10645;52.370;13.314;2022-10-16T05:08:32;12.70;99.90
20973;DHT22;10645;52.370;13.314;2022-10-16T05:10:59;12.70;99.90
20973;DHT22;10645;52.370;13.314;2022-10-16T05:13:25;12.70;99.90
20973;DHT22;10645;52.370;13.314;2022-10-16T05:15:51;12.60;99.90
20973;DHT22;10645;52.370;13.314;2022-10-16T05:18:17;12.50;99.90
20973;DHT22;10645;52.370;13.314;2022-10-16T05:20:43;12.50;99.90
20973;DHT22;10645;52.370;13.314;2022-10-16T05:23:10;12.40;99.90
20973;DHT22;10645;52.370;13.314;2022-10-16T05:25:37;12.50;99.90
20973;DHT22;10645;52.370;13.314;2022-10-16T05:28:03;12.50;99.90
20973;DHT22;10645;52.370;13.314;2022-10-16T05:30:29;12.50;99.90
20973;DHT22;10645;52.370;13.314;2022-10-16T05:32:55;12.50;99.90
20973;DHT22;10645;52.370;13.314;2022-10-16T05:35:21;12.50;99.90
20973;DHT22;10645;52.370;13.314;2022-10-16T05:37:48;12.50;99.90
20973;DHT22;10645;52.370;13.314;2022-10-16T05:40:14;12.50;99.90
20973;DHT22;10645;52.370;13.314;2022-10-16T05:42:40;12.50;99.90
20973;DHT22;10645;52.370;13.314;2022-10-16T05:45:09;12.60;99.90
20973;DHT22;10645;52.370;13.314;2022-10-16T05:47:35;12.70;99.90
20973;DHT22;10645;52.370;13.314;2022-10-16T05:50:02;12.70;99.90
20973;DHT22;10645;52.370;13.314;2022-10-16T05:52:29;12.70;99.90
20973;DHT22;10645;52.370;13.314;2022-10-16T05:54:56;12.80;99.90
20973;DHT22;10645;52.370;13.314;2022-10-16T05:57:22;12.80;99.90
20973;DHT22;10645;52.370;13.314;2022-10-16T05:59:48;12.90;99.90
20973;DHT22;10645;52.370;13.314;2022-10-16T06:02:14;12.90;99.90
20973;DHT22;10645;52.370;13.314;2022-10-16T06:04:41;12.90;99.90
20973;DHT22;10645;52.370;13.314;2022-10-16T06:07:07;13.00;99.90
20973;DHT22;10645;52.370;13.314;2022-10-16T06:09:33;13.00;99.90
20973;DHT22;10645;52.370;13.314;2022-10-16T06:11:59;13.10;99.90
20973;DHT22;10645;52.370;13.314;2022-10-16T06:14:25;13.10;99.90
20973;DHT22;10645;52.370;13.314;2022-10-16T06:16:51;13.20;99.90
20973;DHT22;10645;52.370;13.314;2022-10-16T06:19:17;13.30;99.90
20973;DHT22;10645;52.370;13.314;2022-10-16T06:21:44;13.40;99.90
20973;DHT22;10645;52.370;13.314;2022-10-16T06:24:11;13.40;99.90
20973;DHT22;10645;52.370;13.314;2022-10-16T06:26:37;13.50;99.90
20973;DHT22;10645;52.370;13.314;2022-10-16T06:29:04;13.50;99.90
20973;DHT22;10645;52.370;13.314;2022-10-16T06:31:30;13.60;99.90
20973;DHT22;10645;52.370;13.314;2022-10-16T06:33:59;13.60;99.90
20973;DHT22;10645;52.370;13.314;2022-10-16T06:36:25;13.70;99.90
20973;DHT22;10645;52.370;13.314;2022-10-16T06:38:52;13.70;99.90
20973;DHT22;10645;52.370;13.314;2022-10-16T06:41:20;13.70;99.90
20973;DHT22;10645;52.370;13.314;2022-10-16T06:43:47;13.70;99.90
20973;DHT22;10645;52.370;13.314;2022-10-16T06:46:16;13.80;99.90
20973;DHT22;10645;52.370;13.314;2022-10-16T06:48:43;13.80;99.90
20973;DHT22;10645;52.370;13.314;2022-10-16T06:51:14;13.90;99.90
20973;DHT22;10645;52.370;13.314;2022-10-16T06:53:43;13.90;99.90
20973;DHT22;10645;52.370;13.314;2022-10-16T06:56:14;14.00;99.90
20973;DHT22;10645;52.370;13.314;2022-10-16T06:58:41;14.00;99.90
20973;DHT22;10645;52.370;13.314;2022-10-16T07:01:07;14.10;99.90
20973;DHT22;10645;52.370;13.314;2022-10-16T07:03:36;14.20;99.90
20973;DHT22;10645;52.370;13.314;2022-10-16T07:06:04;14.30;99.90
20973;DHT22;10645;52.370;13.314;2022-10-16T07:08:34;14.40;99.90
20973;DHT22;10645;52.370;13.314;2022-10-16T07:11:03;14.60;99.90
20973;DHT22;10645;52.370;13.314;2022-10-16T07:13:33;14.80;99.90
20973;DHT22;10645;52.370;13.314;2022-10-16T07:16:11;15.10;99.90
20973;DHT22;10645;52.370;13.314;2022-10-16T07:18:37;15.30;99.90
20973;DHT22;10645;52.370;13.314;2022-10-16T07:21:15;15.50;99.90
20973;DHT22;10645;52.370;13.314;2022-10-16T07:23:42;15.70;99.90
20973;DHT22;10645;52.370;13.314;2022-10-16T07:26:08;15.80;99.90
20973;DHT22;10645;52.370;13.314;2022-10-16T07:28:36;16.00;99.90
20973;DHT22;10645;52.370;13.314;2022-10-16T07:31:03;16.20;99.90
20973;DHT22;10645;52.370;13.314;2022-10-16T07:33:31;16.40;99.90
20973;DHT22;10645;52.370;13.314;2022-10-16T07:35:57;16.60;99.90
20973;DHT22;10645;52.370;13.314;2022-10-16T07:38:23;16.70;99.90
20973;DHT22;10645;52.370;13.314;2022-10-16T07:40:59;16.70;99.90
20973;DHT22;10645;52.370;13.314;2022-10-16T07:43:26;16.70;99.90
20973;DHT22;10645;52.370;13.314;2022-10-16T07:45:53;16.60;99.90
20973;DHT22;10645;52.370;13.314;2022-10-16T07:48:19;16.50;99.90
20973;DHT22;10645;52.370;13.314;2022-10-16T07:50:46;16.50;99.90
20973;DHT22;10645;52.370;13.314;2022-10-16T07:53:12;16.40;99.90
20973;DHT22;10645;52.370;13.314;2022-10-16T07:55:38;16.40;99.90
20973;DHT22;10645;52.370;13.314;2022-10-16T07:58:05;16.40;99.90
20973;DHT22;10645;52.370;13.314;2022-10-16T08:00:31;16.40;99.90
20973;DHT22;10645;52.370;13.314;2022-10-16T08:02:58;16.40;99.90
20973;DHT22;10645;52.370;13.314;2022-10-16T08:05:28;16.40;99.90
20973;DHT22;10645;52.370;13.314;2022-10-16T08:07:55;16.50;99.90
20973;DHT22;10645;52.370;13.314;2022-10-16T08:10:23;16.60;99.90
20973;DHT22;10645;52.370;13.314;2022-10-16T08:12:51;16.50;99.90
20973;DHT22;10645;52.370;13.314;2022-10-16T08:15:18;16.60;99.90
20973;DHT22;10645;52.370;13.314;2022-10-16T08:17:44;16.80;99.90
20973;DHT22;10645;52.370;13.314;2022-10-16T08:20:10;16.90;99.90
20973;DHT22;10645;52.370;13.314;2022-10-16T08:22:37;17.00;99.90
20973;DHT22;10645;52.370;13.314;2022-10-16T08:25:03;17.10;99.90
20973;DHT22;10645;52.370;13.314;2022-10-16T08:27:32;17.20;99.90
20973;DHT22;10645;52.370;13.314;2022-10-16T08:29:59;17.30;99.90
20973;DHT22;10645;52.370;13.314;2022-10-16T08:32:25;17.40;99.90
20973;DHT22;10645;52.370;13.314;2022-10-16T08:34:51;17.50;99.90
20973;DHT22;10645;52.370;13.314;2022-10-16T08:37:17;17.70;99.90
20973;DHT22;10645;52.370;13.314;2022-10-16T08:39:43;17.80;99.90
20973;DHT22;10645;52.370;13.314;2022-10-16T08:42:34;17.80;99.90
20973;DHT22;10645;52.370;13.314;2022-10-16T08:47:58;17.70;99.90
20973;DHT22;10645;52.370;13.314;2022-10-16T08:50:32;17.60;99.90
20973;DHT22;10645;52.370;13.314;2022-10-16T08:52:59;17.60;99.90
20973;DHT22;10645;52.370;13.314;2022-10-16T08:55:46;17.60;99.90
20973;DHT22;10645;52.370;13.314;2022-10-16T08:58:18;17.50;99.90
20973;DHT22;10645;52.370;13.314;2022-10-16T09:00:48;17.50;99.90
20973;DHT22;10645;52.370;13.314;2022-10-16T09:11:37;17.50;99.90
20973;DHT22;10645;52.370;13.314;2022-10-16T09:16:54;17.80;99.90
20973;DHT22;10645;52.370;13.314;2022-10-16T09:19:30;17.90;99.90
20973;DHT22;10645;52.370;13.314;2022-10-16T09:21:59;18.00;99.90
20973;DHT22;10645;52.370;13.314;2022-10-16T09:24:29;18.10;99.90
20973;DHT22;10645;52.370;13.314;2022-10-16T09:26:55;18.10;99.90
20973;DHT22;10645;52.370;13.314;2022-10-16T09:29:22;18.10;99.90
20973;DHT22;10645;52.370;13.314;2022-10-16T09:31:52;18.20;99.90
20973;DHT22;10645;52.370;13.314;2022-10-16T09:34:32;18.20;99.90
20973;DHT22;10645;52.370;13.314;2022-10-16T09:37:00;18.30;99.90
20973;DHT22;10645;52.370;13.314;2022-10-16T09:39:28;18.50;99.90
20973;DHT22;10645;52.370;13.314;2022-10-16T09:41:55;18.60;99.90
20973;DHT22;10645;52.370;13.314;2022-10-16T09:44:28;18.70;99.90
20973;DHT22;10645;52.370;13.314;2022-10-16T09:47:10;18.60;99.90
20973;DHT22;10645;52.370;13.314;2022-10-16T09:49:38;18.60;99.90
20973;DHT22;10645;52.370;13.314;2022-10-16T09:52:12;18.60;99.90
20973;DHT22;10645;52.370;13.314;2022-10-16T09:54:53;18.50;99.90
20973;DHT22;10645;52.370;13.314;2022-10-16T09:57:20;18.40;99.90
20973;DHT22;10645;52.370;13.314;2022-10-16T09:59:49;18.40;99.90
20973;DHT22;10645;52.370;13.314;2022-10-16T10:02:30;18.40;99.90
20973;DHT22;10645;52.370;13.314;2022-10-16T10:04:57;18.50;99.90
20973;DHT22;10645;52.370;13.314;2022-10-16T10:07:35;18.90;99.90
20973;DHT22;10645;52.370;13.314;2022-10-16T10:10:05;19.20;99.90
20973;DHT22;10645;52.370;13.314;2022-10-16T10:12:35;19.40;99.90
20973;DHT22;10645;52.370;13.314;2022-10-16T10:15:07;19.70;99.90
20973;DHT22;10645;52.370;13.314;2022-10-16T10:17:46;19.90;99.90
20973;DHT22;10645;52.370;13.314;2022-10-16T10:20:28;20.00;99.90
20973;DHT22;10645;52.370;13.314;2022-10-16T10:22:55;20.10;99.90
20973;DHT22;10645;52.370;13.314;2022-10-16T10:25:44;20.20;99.90
20973;DHT22;10645;52.370;13.314;2022-10-16T10:28:18;20.20;99.90
20973;DHT22;10645;52.370;13.314;2022-10-16T10:36:39;19.90;99.90
20973;DHT22;10645;52.370;13.314;2022-10-16T10:39:30;20.00;99.90
20973;DHT22;10645;52.370;13.314;2022-10-16T10:45:03;19.90;99.90
20973;DHT22;10645;52.370;13.314;2022-10-16T10:47:47;19.70;99.90
20973;DHT22;10645;52.370;13.314;2022-10-16T10:53:07;19.80;99.90
20973;DHT22;10645;52.370;13.314;2022-10-16T10:56:00;19.80;99.90
20973;DHT22;10645;52.370;13.314;2022-10-16T11:02:10;19.80;99.90
20973;DHT22;10645;52.370;13.314;2022-10-16T11:04:45;19.80;99.90
20973;DHT22;10645;52.370;13.314;2022-10-16T11:07:22;19.70;99.90
20973;DHT22;10645;52.370;13.314;2022-10-16T11:09:56;19.70;99.90
20973;DHT22;10645;52.370;13.314;2022-10-16T11:12:33;19.70;99.90
20973;DHT22;10645;52.370;13.314;2022-10-16T11:15:14;19.90;99.90
20973;DHT22;10645;52.370;13.314;2022-10-16T11:18:07;20.30;99.90
20973;DHT22;10645;52.370;13.314;2022-10-16T11:20:35;20.80;99.90
20973;DHT22;10645;52.370;13.314;2022-10-16T11:23:14;21.00;99.90
20973;DHT22;10645;52.370;13.314;2022-10-16T11:25:43;21.30;99.90
20973;DHT22;10645;52.370;13.314;2022-10-16T11:28:16;21.50;99.90
20973;DHT22;10645;52.370;13.314;2022-10-16T11:30:49;21.50;99.90
20973;DHT22;10645;52.370;13.314;2022-10-16T11:36:41;21.40;99.90
20973;DHT22;10645;52.370;13.314;2022-10-16T11:39:24;21.40;99.90
20973;DHT22;10645;52.370;13.314;2022-10-16T11:47:08;21.70;99.90
20973;DHT22;10645;52.370;13.314;2022-10-16T11:49:39;21.90;99.90
20973;DHT22;10645;52.370;13.314;2022-10-16T11:52:13;21.90;99.90
20973;DHT22;10645;52.370;13.314;2022-10-16T11:57:33;21.80;99.90
20973;DHT22;10645;52.370;13.314;2022-10-16T12:02:57;21.20;99.90
20973;DHT22;10645;52.370;13.314;2022-10-16T12:05:55;21.10;99.90
20973;DHT22;10645;52.370;13.314;2022-10-16T12:08:22;21.00;99.90
20973;DHT22;10645;52.370;13.314;2022-10-16T12:10:52;21.00;99.90
20973;DHT22;10645;52.370;13.314;2022-10-16T12:13:33;20.90;99.90
20973;DHT22;10645;52.370;13.314;2022-10-16T12:18:47;20.60;99.90
20973;DHT22;10645;52.370;13.314;2022-10-16T12:21:16;20.40;99.90
20973;DHT22;10645;52.370;13.314;2022-10-16T12:23:55;20.20;99.90
20973;DHT22;10645;52.370;13.314;2022-10-16T12:26:30;20.20;99.90
20973;DHT22;10645;52.370;13.314;2022-10-16T12:29:17;20.10;99.90
20973;DHT22;10645;52.370;13.314;2022-10-16T12:31:50;20.20;99.90
20973;DHT22;10645;52.370;13.314;2022-10-16T12:34:32;20.30;99.90
20973;DHT22;10645;52.370;13.314;2022-10-16T12:37:18;20.40;99.90
20973;DHT22;10645;52.370;13.314;2022-10-16T12:39:49;20.70;99.90
20973;DHT22;10645;52.370;13.314;2022-10-16T12:42:33;20.70;99.90
20973;DHT22;10645;52.370;13.314;2022-10-16T12:45:00;20.80;99.90
20973;DHT22;10645;52.370;13.314;2022-10-16T12:49:59;21.00;99.90
20973;DHT22;10645;52.370;13.314;2022-10-16T12:54:58;20.80;99.90
20973;DHT22;10645;52.370;13.314;2022-10-16T13:00:28;20.60;99.90
20973;DHT22;10645;52.370;13.314;2022-10-16T13:06:19;20.50;99.90
20973;DHT22;10645;52.370;13.314;2022-10-16T13:09:13;20.50;99.90
20973;DHT22;10645;52.370;13.314;2022-10-16T13:12:05;20.50;99.90
20973;DHT22;10645;52.370;13.314;2022-10-16T13:14:50;20.50;99.90
20973;DHT22;10645;52.370;13.314;2022-10-16T13:17:30;20.60;99.90
20973;DHT22;10645;52.370;13.314;2022-10-16T13:20:31;20.70;99.90
20973;DHT22;10645;52.370;13.314;2022-10-16T13:23:13;20.80;99.90
20973;DHT22;10645;52.370;13.314;2022-10-16T13:28:50;20.90;99.90
20973;DHT22;10645;52.370;13.314;2022-10-16T13:31:22;21.00;99.90
20973;DHT22;10645;52.370;13.314;2022-10-16T13:33:55;21.00;99.90
20973;DHT22;10645;52.370;13.314;2022-10-16T13:36:33;21.00;99.90
20973;DHT22;10645;52.370;13.314;2022-10-16T13:39:14;21.00;99.90
20973;DHT22;10645;52.370;13.314;2022-10-16T13:41:43;21.00;99.90
20973;DHT22;10645;52.370;13.314;2022-10-16T13:44:15;20.90;99.90
20973;DHT22;10645;52.370;13.314;2022-10-16T13:46:43;20.80;99.90
20973;DHT22;10645;52.370;13.314;2022-10-16T13:49:15;20.80;99.90
20973;DHT22;10645;52.370;13.314;2022-10-16T13:51:47;20.60;99.90
20973;DHT22;10645;52.370;13.314;2022-10-16T13:54:22;20.50;99.90
20973;DHT22;10645;52.370;13.314;2022-10-16T13:56:48;20.50;99.90
20973;DHT22;10645;52.370;13.314;2022-10-16T13:59:33;20.40;99.90
20973;DHT22;10645;52.370;13.314;2022-10-16T14:02:04;20.40;99.90
20973;DHT22;10645;52.370;13.314;2022-10-16T14:04:33;20.30;99.90
20973;DHT22;10645;52.370;13.314;2022-10-16T14:06:59;20.30;99.90
20973;DHT22;10645;52.370;13.314;2022-10-16T14:09:30;20.20;99.90
20973;DHT22;10645;52.370;13.314;2022-10-16T14:12:00;20.20;99.90
20973;DHT22;10645;52.370;13.314;2022-10-16T14:14:41;20.20;99.90
20973;DHT22;10645;52.370;13.314;2022-10-16T14:17:31;20.10;99.90
20973;DHT22;10645;52.370;13.314;2022-10-16T14:20:00;20.00;99.90
20973;DHT22;10645;52.370;13.314;2022-10-16T14:22:35;19.90;99.90
20973;DHT22;10645;52.370;13.314;2022-10-16T14:28:04;19.80;99.90
20973;DHT22;10645;52.370;13.314;2022-10-16T14:31:00;19.70;99.90
20973;DHT22;10645;52.370;13.314;2022-10-16T14:36:22;19.60;99.90
20973;DHT22;10645;52.370;13.314;2022-10-16T14:39:05;19.60;99.90
20973;DHT22;10645;52.370;13.314;2022-10-16T14:41:41;19.50;99.90
20973;DHT22;10645;52.370;13.314;2022-10-16T14:44:10;19.40;99.90
20973;DHT22;10645;52.370;13.314;2022-10-16T14:46:38;19.30;99.90
20973;DHT22;10645;52.370;13.314;2022-10-16T14:51:38;19.30;99.90
20973;DHT22;10645;52.370;13.314;2022-10-16T14:54:04;19.20;99.90
20973;DHT22;10645;52.370;13.314;2022-10-16T14:56:50;19.20;99.90
20973;DHT22;10645;52.370;13.314;2022-10-16T14:59:38;19.20;99.90
20973;DHT22;10645;52.370;13.314;2022-10-16T15:04:47;19.00;99.90
20973;DHT22;10645;52.370;13.314;2022-10-16T15:07:13;18.80;99.90
20973;DHT22;10645;52.370;13.314;2022-10-16T15:09:39;18.70;99.90
20973;DHT22;10645;52.370;13.314;2022-10-16T15:12:06;18.70;99.90
20973;DHT22;10645;52.370;13.314;2022-10-16T15:14:32;18.60;99.90
20973;DHT22;10645;52.370;13.314;2022-10-16T15:16:58;18.50;99.90
20973;DHT22;10645;52.370;13.314;2022-10-16T15:19:24;18.40;99.90
20973;DHT22;10645;52.370;13.314;2022-10-16T15:21:50;18.40;99.90
20973;DHT22;10645;52.370;13.314;2022-10-16T15:24:18;18.40;99.90
20973;DHT22;10645;52.370;13.314;2022-10-16T15:26:45;18.30;99.90
20973;DHT22;10645;52.370;13.314;2022-10-16T15:29:15;18.20;99.90
20973;DHT22;10645;52.370;13.314;2022-10-16T15:31:41;18.10;99.90
20973;DHT22;10645;52.370;13.314;2022-10-16T15:34:14;18.10;99.90
20973;DHT22;10645;52.370;13.314;2022-10-16T15:36:41;17.90;99.90
20973;DHT22;10645;52.370;13.314;2022-10-16T15:39:13;17.90;99.90
20973;DHT22;10645;52.370;13.314;2022-10-16T15:41:40;17.80;99.90
20973;DHT22;10645;52.370;13.314;2022-10-16T15:44:07;17.70;99.90
20973;DHT22;10645;52.370;13.314;2022-10-16T15:46:33;17.60;99.90
20973;DHT22;10645;52.370;13.314;2022-10-16T15:49:00;17.50;99.90
20973;DHT22;10645;52.370;13.314;2022-10-16T15:51:27;17.50;99.90
20973;DHT22;10645;52.370;13.314;2022-10-16T15:53:58;17.40;99.90
20973;DHT22;10645;52.370;13.314;2022-10-16T15:56:25;17.20;99.90
20973;DHT22;10645;52.370;13.314;2022-10-16T15:58:52;17.00;99.90
20973;DHT22;10645;52.370;13.314;2022-10-16T16:01:19;16.80;99.90
20973;DHT22;10645;52.370;13.314;2022-10-16T16:03:45;16.60;99.90
20973;DHT22;10645;52.370;13.314;2022-10-16T16:06:13;16.40;99.90
20973;DHT22;10645;52.370;13.314;2022-10-16T16:08:40;16.10;99.90
20973;DHT22;10645;52.370;13.314;2022-10-16T16:11:11;15.90;99.90
20973;DHT22;10645;52.370;13.314;2022-10-16T16:13:38;15.70;99.90
20973;DHT22;10645;52.370;13.314;2022-10-16T16:16:06;15.40;99.90
20973;DHT22;10645;52.370;13.314;2022-10-16T16:18:33;15.20;99.90
20973;DHT22;10645;52.370;13.314;2022-10-16T16:20:59;15.00;99.90
20973;DHT22;10645;52.370;13.314;2022-10-16T16:23:25;14.80;99.90
20973;DHT22;10645;52.370;13.314;2022-10-16T16:26:11;14.60;99.90
20973;DHT22;10645;52.370;13.314;2022-10-16T16:28:39;14.40;99.90
20973;DHT22;10645;52.370;13.314;2022-10-16T16:31:05;14.20;99.90
20973;DHT22;10645;52.370;13.314;2022-10-16T16:33:32;14.10;99.90
20973;DHT22;10645;52.370;13.314;2022-10-16T16:35:59;13.90;99.90
20973;DHT22;10645;52.370;13.314;2022-10-16T16:38:26;13.70;99.90
20973;DHT22;10645;52.370;13.314;2022-10-16T16:40:53;13.60;99.90
20973;DHT22;10645;52.370;13.314;2022-10-16T16:43:23;13.50;99.90
20973;DHT22;10645;52.370;13.314;2022-10-16T16:45:49;13.30;99.90
20973;DHT22;10645;52.370;13.314;2022-10-16T16:48:15;13.20;99.90
20973;DHT22;10645;52.370;13.314;2022-10-16T16:50:41;13.10;99.90
20973;DHT22;10645;52.370;13.314;2022-10-16T16:53:07;12.90;99.90
20973;DHT22;10645;52.370;13.314;2022-10-16T16:55:33;12.80;99.90
20973;DHT22;10645;52.370;13.314;2022-10-16T16:57:59;12.80;99.90
20973;DHT22;10645;52.370;13.314;2022-10-16T17:00:26;12.70;99.90